Oxnard Airport Oxnard US
ICAO: KOXR
IATA: OXR
Category: Medium
Scheduled Services: No

Elevation: 45 ft
TransAlt. 18000 ft.

Airport Communications:
PT MUGU APP/DEP:124.7
ATIS:118.05
CTAF:134.95
GND:121.9
TWR:134.95

KOXR Zoom In..

Runways:

(A) RW 07 length 5953 ft width 100 ft
---- / hdg 76

(B) RW 25 length 5953 ft width 100 ft
ILS 108.70 / hdg 256

Location; KOXR
Day. 21 / Time. 14.51 Zulu
* Altimeter: 29.88
* Temperature: 15° c. 59°f.
* Wind from: 280° Speed 07 kn.
Dewpoint: 11° c.
Visibility: 10 Statute Miles.
Clouds: Few 1700 ft.
Clouds: Overcast 2600 ft.

KOXR 211451Z 28007KT 10SM FEW017 OVC026 15/11 A2988 RMK AO2 SLP116 T01500111 51009


Wind From 280°
Speed 07 kn.

 
 
jpsmedia.com for Web Design SOUNDCLOUD worldairports.se 2018   terms of use